sensor_id;sensor_type;location;lat;lon;timestamp;P1;durP1;ratioP1;P2;durP2;ratioP2
23745;SDS011;12053;48.878;9.632;2023-12-04T00:01:19;18.85;;;10.38;;
23745;SDS011;12053;48.878;9.632;2023-12-04T00:03:46;17.67;;;10.23;;
23745;SDS011;12053;48.878;9.632;2023-12-04T00:06:14;19.00;;;10.73;;
23745;SDS011;12053;48.878;9.632;2023-12-04T00:08:41;17.42;;;10.43;;
23745;SDS011;12053;48.878;9.632;2023-12-04T00:11:08;17.50;;;9.32;;
23745;SDS011;12053;48.878;9.632;2023-12-04T00:13:36;16.63;;;9.70;;
23745;SDS011;12053;48.878;9.632;2023-12-04T00:16:03;14.73;;;8.95;;
23745;SDS011;12053;48.878;9.632;2023-12-04T00:18:30;14.57;;;9.40;;
23745;SDS011;12053;48.878;9.632;2023-12-04T00:20:58;17.13;;;9.23;;
23745;SDS011;12053;48.878;9.632;2023-12-04T00:23:25;13.95;;;8.45;;
23745;SDS011;12053;48.878;9.632;2023-12-04T00:25:54;13.05;;;7.63;;
23745;SDS011;12053;48.878;9.632;2023-12-04T00:28:22;14.13;;;8.40;;
23745;SDS011;12053;48.878;9.632;2023-12-04T00:30:49;14.73;;;7.78;;
23745;SDS011;12053;48.878;9.632;2023-12-04T00:33:16;12.77;;;7.45;;
23745;SDS011;12053;48.878;9.632;2023-12-04T00:35:43;10.85;;;5.80;;
23745;SDS011;12053;48.878;9.632;2023-12-04T00:38:10;10.18;;;6.25;;
23745;SDS011;12053;48.878;9.632;2023-12-04T00:40:38;11.00;;;6.70;;
23745;SDS011;12053;48.878;9.632;2023-12-04T00:43:05;13.27;;;7.05;;
23745;SDS011;12053;48.878;9.632;2023-12-04T00:45:32;12.65;;;7.40;;
23745;SDS011;12053;48.878;9.632;2023-12-04T00:47:59;13.23;;;7.22;;
23745;SDS011;12053;48.878;9.632;2023-12-04T00:50:27;14.20;;;8.05;;
23745;SDS011;12053;48.878;9.632;2023-12-04T00:52:54;13.30;;;7.43;;
23745;SDS011;12053;48.878;9.632;2023-12-04T00:55:21;25.52;;;11.30;;
23745;SDS011;12053;48.878;9.632;2023-12-04T00:57:48;16.95;;;8.65;;
23745;SDS011;12053;48.878;9.632;2023-12-04T01:00:15;15.25;;;8.50;;
23745;SDS011;12053;48.878;9.632;2023-12-04T01:02:43;15.05;;;7.78;;
23745;SDS011;12053;48.878;9.632;2023-12-04T01:05:10;14.30;;;8.35;;
23745;SDS011;12053;48.878;9.632;2023-12-04T01:07:37;13.02;;;7.75;;
23745;SDS011;12053;48.878;9.632;2023-12-04T01:10:04;12.27;;;8.18;;
23745;SDS011;12053;48.878;9.632;2023-12-04T01:12:32;14.43;;;8.00;;
23745;SDS011;12053;48.878;9.632;2023-12-04T01:15:00;11.73;;;7.82;;
23745;SDS011;12053;48.878;9.632;2023-12-04T01:17:27;12.60;;;7.82;;
23745;SDS011;12053;48.878;9.632;2023-12-04T01:19:54;15.23;;;9.57;;
23745;SDS011;12053;48.878;9.632;2023-12-04T01:22:22;13.23;;;8.27;;
23745;SDS011;12053;48.878;9.632;2023-12-04T01:24:49;14.43;;;8.73;;
23745;SDS011;12053;48.878;9.632;2023-12-04T01:27:16;14.35;;;8.18;;
23745;SDS011;12053;48.878;9.632;2023-12-04T01:29:43;14.80;;;8.32;;
23745;SDS011;12053;48.878;9.632;2023-12-04T01:32:10;14.45;;;8.00;;
23745;SDS011;12053;48.878;9.632;2023-12-04T01:34:37;13.55;;;7.95;;
23745;SDS011;12053;48.878;9.632;2023-12-04T01:37:05;13.57;;;7.85;;
23745;SDS011;12053;48.878;9.632;2023-12-04T01:39:32;12.55;;;7.35;;
23745;SDS011;12053;48.878;9.632;2023-12-04T01:41:59;14.55;;;8.00;;
23745;SDS011;12053;48.878;9.632;2023-12-04T01:44:26;12.43;;;7.53;;
23745;SDS011;12053;48.878;9.632;2023-12-04T01:46:53;14.60;;;8.25;;
23745;SDS011;12053;48.878;9.632;2023-12-04T01:49:21;13.30;;;7.70;;
23745;SDS011;12053;48.878;9.632;2023-12-04T01:51:48;13.68;;;8.02;;
23745;SDS011;12053;48.878;9.632;2023-12-04T01:54:15;10.68;;;7.10;;
23745;SDS011;12053;48.878;9.632;2023-12-04T01:56:43;12.45;;;7.22;;
23745;SDS011;12053;48.878;9.632;2023-12-04T01:59:11;11.00;;;6.78;;
23745;SDS011;12053;48.878;9.632;2023-12-04T02:01:38;12.95;;;7.75;;
23745;SDS011;12053;48.878;9.632;2023-12-04T02:04:05;17.73;;;9.38;;
23745;SDS011;12053;48.878;9.632;2023-12-04T02:06:33;18.60;;;10.05;;
23745;SDS011;12053;48.878;9.632;2023-12-04T02:09:01;12.95;;;8.02;;
23745;SDS011;12053;48.878;9.632;2023-12-04T02:11:28;16.48;;;9.00;;
23745;SDS011;12053;48.878;9.632;2023-12-04T02:13:56;11.00;;;7.07;;
23745;SDS011;12053;48.878;9.632;2023-12-04T02:16:23;11.68;;;7.22;;
23745;SDS011;12053;48.878;9.632;2023-12-04T02:18:53;13.30;;;7.35;;
23745;SDS011;12053;48.878;9.632;2023-12-04T02:21:20;11.98;;;7.25;;
23745;SDS011;12053;48.878;9.632;2023-12-04T02:23:49;12.45;;;7.25;;
23745;SDS011;12053;48.878;9.632;2023-12-04T02:26:17;10.68;;;6.60;;
23745;SDS011;12053;48.878;9.632;2023-12-04T02:28:46;9.30;;;5.90;;
23745;SDS011;12053;48.878;9.632;2023-12-04T02:31:15;8.10;;;5.30;;
23745;SDS011;12053;48.878;9.632;2023-12-04T02:33:43;8.02;;;5.28;;
23745;SDS011;12053;48.878;9.632;2023-12-04T02:36:12;9.18;;;5.40;;
23745;SDS011;12053;48.878;9.632;2023-12-04T02:38:40;10.15;;;6.40;;
23745;SDS011;12053;48.878;9.632;2023-12-04T02:41:07;11.07;;;6.25;;
23745;SDS011;12053;48.878;9.632;2023-12-04T02:43:34;11.20;;;7.30;;
23745;SDS011;12053;48.878;9.632;2023-12-04T02:46:01;11.77;;;6.45;;
23745;SDS011;12053;48.878;9.632;2023-12-04T02:48:29;10.63;;;6.75;;
23745;SDS011;12053;48.878;9.632;2023-12-04T02:50:56;9.65;;;5.65;;
23745;SDS011;12053;48.878;9.632;2023-12-04T02:53:23;11.18;;;6.45;;
23745;SDS011;12053;48.878;9.632;2023-12-04T02:55:51;9.13;;;5.72;;
23745;SDS011;12053;48.878;9.632;2023-12-04T02:58:18;8.30;;;5.72;;
23745;SDS011;12053;48.878;9.632;2023-12-04T03:00:45;7.20;;;5.20;;
23745;SDS011;12053;48.878;9.632;2023-12-04T03:03:12;7.90;;;5.35;;
23745;SDS011;12053;48.878;9.632;2023-12-04T03:05:39;7.55;;;5.20;;
23745;SDS011;12053;48.878;9.632;2023-12-04T03:08:06;8.35;;;4.60;;
23745;SDS011;12053;48.878;9.632;2023-12-04T03:10:34;8.68;;;5.35;;
23745;SDS011;12053;48.878;9.632;2023-12-04T03:13:01;8.70;;;5.07;;
23745;SDS011;12053;48.878;9.632;2023-12-04T03:15:28;6.38;;;4.75;;
23745;SDS011;12053;48.878;9.632;2023-12-04T03:17:58;7.18;;;4.53;;
23745;SDS011;12053;48.878;9.632;2023-12-04T03:20:26;7.78;;;4.78;;
23745;SDS011;12053;48.878;9.632;2023-12-04T03:22:53;8.57;;;5.55;;
23745;SDS011;12053;48.878;9.632;2023-12-04T03:25:20;8.27;;;5.22;;
23745;SDS011;12053;48.878;9.632;2023-12-04T03:27:47;9.38;;;5.40;;
23745;SDS011;12053;48.878;9.632;2023-12-04T03:30:14;9.27;;;5.95;;
23745;SDS011;12053;48.878;9.632;2023-12-04T03:32:42;8.73;;;5.38;;
23745;SDS011;12053;48.878;9.632;2023-12-04T03:35:09;7.65;;;5.43;;
23745;SDS011;12053;48.878;9.632;2023-12-04T03:37:36;9.63;;;5.40;;
23745;SDS011;12053;48.878;9.632;2023-12-04T03:40:04;9.57;;;5.82;;
23745;SDS011;12053;48.878;9.632;2023-12-04T03:42:31;10.32;;;6.30;;
23745;SDS011;12053;48.878;9.632;2023-12-04T03:44:58;7.88;;;4.85;;
23745;SDS011;12053;48.878;9.632;2023-12-04T03:47:26;6.38;;;4.32;;
23745;SDS011;12053;48.878;9.632;2023-12-04T03:49:53;8.55;;;4.63;;
23745;SDS011;12053;48.878;9.632;2023-12-04T03:52:20;8.43;;;5.57;;
23745;SDS011;12053;48.878;9.632;2023-12-04T03:54:47;9.23;;;5.85;;
23745;SDS011;12053;48.878;9.632;2023-12-04T03:57:14;8.93;;;5.45;;
23745;SDS011;12053;48.878;9.632;2023-12-04T03:59:43;8.25;;;5.05;;
23745;SDS011;12053;48.878;9.632;2023-12-04T04:02:11;7.97;;;5.03;;
23745;SDS011;12053;48.878;9.632;2023-12-04T04:04:38;7.63;;;4.78;;
23745;SDS011;12053;48.878;9.632;2023-12-04T04:07:06;7.93;;;5.45;;
23745;SDS011;12053;48.878;9.632;2023-12-04T04:09:33;9.43;;;5.75;;
23745;SDS011;12053;48.878;9.632;2023-12-04T04:12:00;9.73;;;5.93;;
23745;SDS011;12053;48.878;9.632;2023-12-04T04:14:27;8.55;;;5.40;;
23745;SDS011;12053;48.878;9.632;2023-12-04T04:16:54;8.07;;;5.18;;
23745;SDS011;12053;48.878;9.632;2023-12-04T04:19:21;8.93;;;5.05;;
23745;SDS011;12053;48.878;9.632;2023-12-04T04:21:49;8.63;;;5.47;;
23745;SDS011;12053;48.878;9.632;2023-12-04T04:24:16;6.70;;;4.43;;
23745;SDS011;12053;48.878;9.632;2023-12-04T04:26:43;7.47;;;5.07;;
23745;SDS011;12053;48.878;9.632;2023-12-04T04:29:10;7.18;;;5.00;;
23745;SDS011;12053;48.878;9.632;2023-12-04T04:31:38;7.63;;;5.00;;
23745;SDS011;12053;48.878;9.632;2023-12-04T04:34:05;6.80;;;4.82;;
23745;SDS011;12053;48.878;9.632;2023-12-04T04:36:32;6.40;;;4.10;;
23745;SDS011;12053;48.878;9.632;2023-12-04T04:39:02;8.82;;;5.15;;
23745;SDS011;12053;48.878;9.632;2023-12-04T04:41:29;7.80;;;4.60;;
23745;SDS011;12053;48.878;9.632;2023-12-04T04:43:57;6.82;;;4.97;;
23745;SDS011;12053;48.878;9.632;2023-12-04T04:46:24;8.32;;;5.10;;
23745;SDS011;12053;48.878;9.632;2023-12-04T04:48:52;8.05;;;4.95;;
23745;SDS011;12053;48.878;9.632;2023-12-04T04:51:20;7.50;;;5.20;;
23745;SDS011;12053;48.878;9.632;2023-12-04T04:53:47;7.55;;;5.10;;
23745;SDS011;12053;48.878;9.632;2023-12-04T04:56:15;8.23;;;5.53;;
23745;SDS011;12053;48.878;9.632;2023-12-04T04:58:42;8.30;;;5.32;;
23745;SDS011;12053;48.878;9.632;2023-12-04T05:01:09;10.45;;;5.68;;
23745;SDS011;12053;48.878;9.632;2023-12-04T05:03:36;9.77;;;5.65;;
23745;SDS011;12053;48.878;9.632;2023-12-04T05:06:04;10.38;;;6.63;;
23745;SDS011;12053;48.878;9.632;2023-12-04T05:08:31;9.35;;;6.38;;
23745;SDS011;12053;48.878;9.632;2023-12-04T05:10:58;9.23;;;5.88;;
23745;SDS011;12053;48.878;9.632;2023-12-04T05:13:26;11.43;;;6.15;;
23745;SDS011;12053;48.878;9.632;2023-12-04T05:15:54;10.15;;;6.28;;
23745;SDS011;12053;48.878;9.632;2023-12-04T05:18:21;11.30;;;6.15;;
23745;SDS011;12053;48.878;9.632;2023-12-04T05:20:48;11.40;;;6.90;;
23745;SDS011;12053;48.878;9.632;2023-12-04T05:23:15;18.27;;;9.85;;
23745;SDS011;12053;48.878;9.632;2023-12-04T05:25:43;12.23;;;7.13;;
23745;SDS011;12053;48.878;9.632;2023-12-04T05:28:15;7.00;;;4.25;;
23745;SDS011;12053;48.878;9.632;2023-12-04T05:30:43;10.50;;;5.82;;
23745;SDS011;12053;48.878;9.632;2023-12-04T05:33:10;9.93;;;6.63;;
23745;SDS011;12053;48.878;9.632;2023-12-04T05:35:38;8.70;;;5.47;;
23745;SDS011;12053;48.878;9.632;2023-12-04T05:38:05;9.15;;;5.00;;
23745;SDS011;12053;48.878;9.632;2023-12-04T05:40:34;8.20;;;5.65;;
23745;SDS011;12053;48.878;9.632;2023-12-04T05:43:01;7.88;;;4.97;;
23745;SDS011;12053;48.878;9.632;2023-12-04T05:45:28;9.50;;;5.57;;
23745;SDS011;12053;48.878;9.632;2023-12-04T05:47:55;8.40;;;4.82;;
23745;SDS011;12053;48.878;9.632;2023-12-04T05:50:23;7.45;;;5.05;;
23745;SDS011;12053;48.878;9.632;2023-12-04T05:52:50;10.30;;;6.15;;
23745;SDS011;12053;48.878;9.632;2023-12-04T05:55:17;10.52;;;6.53;;
23745;SDS011;12053;48.878;9.632;2023-12-04T05:57:46;10.77;;;6.55;;
23745;SDS011;12053;48.878;9.632;2023-12-04T06:00:13;9.52;;;5.82;;
23745;SDS011;12053;48.878;9.632;2023-12-04T06:02:41;9.27;;;4.97;;
23745;SDS011;12053;48.878;9.632;2023-12-04T06:05:09;8.13;;;4.65;;
23745;SDS011;12053;48.878;9.632;2023-12-04T06:07:37;9.18;;;5.53;;
23745;SDS011;12053;48.878;9.632;2023-12-04T06:10:04;9.55;;;4.80;;
23745;SDS011;12053;48.878;9.632;2023-12-04T06:12:32;7.50;;;4.78;;
23745;SDS011;12053;48.878;9.632;2023-12-04T06:14:59;7.30;;;4.53;;
23745;SDS011;12053;48.878;9.632;2023-12-04T06:17:27;4.90;;;3.30;;
23745;SDS011;12053;48.878;9.632;2023-12-04T06:19:54;6.18;;;4.18;;
23745;SDS011;12053;48.878;9.632;2023-12-04T06:22:21;10.15;;;5.32;;
23745;SDS011;12053;48.878;9.632;2023-12-04T06:24:49;6.43;;;4.28;;
23745;SDS011;12053;48.878;9.632;2023-12-04T06:27:17;8.25;;;4.95;;
23745;SDS011;12053;48.878;9.632;2023-12-04T06:29:47;7.88;;;4.72;;
23745;SDS011;12053;48.878;9.632;2023-12-04T06:32:18;6.95;;;4.82;;
23745;SDS011;12053;48.878;9.632;2023-12-04T06:34:46;9.65;;;5.20;;
23745;SDS011;12053;48.878;9.632;2023-12-04T06:37:13;7.63;;;5.55;;
23745;SDS011;12053;48.878;9.632;2023-12-04T06:39:41;9.82;;;6.28;;
23745;SDS011;12053;48.878;9.632;2023-12-04T06:42:08;7.38;;;5.07;;
23745;SDS011;12053;48.878;9.632;2023-12-04T06:44:36;6.57;;;4.65;;
23745;SDS011;12053;48.878;9.632;2023-12-04T06:47:03;7.90;;;5.13;;
23745;SDS011;12053;48.878;9.632;2023-12-04T06:49:31;8.48;;;4.82;;
23745;SDS011;12053;48.878;9.632;2023-12-04T06:51:59;10.65;;;5.78;;
23745;SDS011;12053;48.878;9.632;2023-12-04T06:54:27;7.93;;;5.20;;
23745;SDS011;12053;48.878;9.632;2023-12-04T06:56:54;8.35;;;5.25;;
23745;SDS011;12053;48.878;9.632;2023-12-04T06:59:22;9.07;;;5.63;;
23745;SDS011;12053;48.878;9.632;2023-12-04T07:01:49;7.80;;;5.40;;
23745;SDS011;12053;48.878;9.632;2023-12-04T07:04:16;7.32;;;4.45;;
23745;SDS011;12053;48.878;9.632;2023-12-04T07:06:47;7.63;;;5.32;;
23745;SDS011;12053;48.878;9.632;2023-12-04T07:09:15;16.40;;;5.05;;
23745;SDS011;12053;48.878;9.632;2023-12-04T07:11:46;8.07;;;5.18;;
23745;SDS011;12053;48.878;9.632;2023-12-04T07:14:13;9.23;;;5.82;;
23745;SDS011;12053;48.878;9.632;2023-12-04T07:16:41;9.32;;;5.53;;
23745;SDS011;12053;48.878;9.632;2023-12-04T07:19:09;10.48;;;6.00;;
23745;SDS011;12053;48.878;9.632;2023-12-04T07:21:37;8.68;;;5.47;;
23745;SDS011;12053;48.878;9.632;2023-12-04T07:24:05;10.82;;;6.90;;
23745;SDS011;12053;48.878;9.632;2023-12-04T07:26:33;13.32;;;8.50;;
23745;SDS011;12053;48.878;9.632;2023-12-04T07:29:00;11.80;;;6.72;;
23745;SDS011;12053;48.878;9.632;2023-12-04T07:31:28;11.13;;;6.88;;
23745;SDS011;12053;48.878;9.632;2023-12-04T07:33:55;9.98;;;6.45;;
23745;SDS011;12053;48.878;9.632;2023-12-04T07:36:22;12.73;;;6.85;;
23745;SDS011;12053;48.878;9.632;2023-12-04T07:38:52;12.63;;;6.68;;
23745;SDS011;12053;48.878;9.632;2023-12-04T07:41:20;10.27;;;6.30;;
23745;SDS011;12053;48.878;9.632;2023-12-04T07:43:48;12.25;;;6.75;;
23745;SDS011;12053;48.878;9.632;2023-12-04T07:46:15;12.48;;;7.28;;
23745;SDS011;12053;48.878;9.632;2023-12-04T07:48:43;10.10;;;6.13;;
23745;SDS011;12053;48.878;9.632;2023-12-04T07:51:11;10.32;;;5.78;;
23745;SDS011;12053;48.878;9.632;2023-12-04T07:53:39;14.30;;;8.13;;
23745;SDS011;12053;48.878;9.632;2023-12-04T07:56:06;13.25;;;7.93;;
23745;SDS011;12053;48.878;9.632;2023-12-04T07:58:33;15.18;;;9.05;;
23745;SDS011;12053;48.878;9.632;2023-12-04T08:01:01;15.27;;;8.43;;
23745;SDS011;12053;48.878;9.632;2023-12-04T08:03:28;14.93;;;7.47;;
23745;SDS011;12053;48.878;9.632;2023-12-04T08:05:55;12.23;;;8.63;;
23745;SDS011;12053;48.878;9.632;2023-12-04T08:08:22;13.27;;;8.23;;
23745;SDS011;12053;48.878;9.632;2023-12-04T08:10:50;12.90;;;7.82;;
23745;SDS011;12053;48.878;9.632;2023-12-04T08:13:17;10.95;;;6.97;;
23745;SDS011;12053;48.878;9.632;2023-12-04T08:15:44;12.50;;;7.07;;
23745;SDS011;12053;48.878;9.632;2023-12-04T08:18:11;12.00;;;6.93;;
23745;SDS011;12053;48.878;9.632;2023-12-04T08:20:39;15.80;;;7.65;;
23745;SDS011;12053;48.878;9.632;2023-12-04T08:23:07;11.77;;;7.72;;
23745;SDS011;12053;48.878;9.632;2023-12-04T08:25:34;13.10;;;8.02;;
23745;SDS011;12053;48.878;9.632;2023-12-04T08:28:05;12.27;;;7.22;;
23745;SDS011;12053;48.878;9.632;2023-12-04T08:30:35;11.05;;;7.63;;
23745;SDS011;12053;48.878;9.632;2023-12-04T08:33:02;12.82;;;7.32;;
23745;SDS011;12053;48.878;9.632;2023-12-04T08:35:30;11.75;;;7.25;;
23745;SDS011;12053;48.878;9.632;2023-12-04T08:37:57;13.70;;;10.20;;
23745;SDS011;12053;48.878;9.632;2023-12-04T08:40:24;13.10;;;7.82;;
23745;SDS011;12053;48.878;9.632;2023-12-04T08:42:51;11.10;;;7.30;;
23745;SDS011;12053;48.878;9.632;2023-12-04T08:45:19;10.98;;;6.30;;
23745;SDS011;12053;48.878;9.632;2023-12-04T08:47:47;15.90;;;8.32;;
23745;SDS011;12053;48.878;9.632;2023-12-04T08:50:15;12.70;;;7.22;;
23745;SDS011;12053;48.878;9.632;2023-12-04T08:52:43;9.43;;;6.45;;
23745;SDS011;12053;48.878;9.632;2023-12-04T08:55:11;11.68;;;6.65;;
23745;SDS011;12053;48.878;9.632;2023-12-04T08:57:38;12.68;;;7.78;;
23745;SDS011;12053;48.878;9.632;2023-12-04T09:00:06;12.77;;;6.72;;
23745;SDS011;12053;48.878;9.632;2023-12-04T09:02:34;13.55;;;7.13;;
23745;SDS011;12053;48.878;9.632;2023-12-04T09:05:09;11.50;;;7.03;;
23745;SDS011;12053;48.878;9.632;2023-12-04T09:07:36;11.98;;;6.53;;
23745;SDS011;12053;48.878;9.632;2023-12-04T09:10:06;10.68;;;6.53;;
23745;SDS011;12053;48.878;9.632;2023-12-04T09:12:46;10.48;;;6.05;;
23745;SDS011;12053;48.878;9.632;2023-12-04T09:15:13;9.65;;;6.13;;
23745;SDS011;12053;48.878;9.632;2023-12-04T09:17:40;11.32;;;6.93;;
23745;SDS011;12053;48.878;9.632;2023-12-04T09:20:12;12.25;;;7.32;;
23745;SDS011;12053;48.878;9.632;2023-12-04T09:22:40;12.07;;;6.63;;
23745;SDS011;12053;48.878;9.632;2023-12-04T09:25:18;11.52;;;7.07;;
23745;SDS011;12053;48.878;9.632;2023-12-04T09:27:45;12.38;;;7.80;;
23745;SDS011;12053;48.878;9.632;2023-12-04T09:30:12;15.23;;;8.52;;
23745;SDS011;12053;48.878;9.632;2023-12-04T09:32:40;15.30;;;7.88;;
23745;SDS011;12053;48.878;9.632;2023-12-04T09:35:07;12.82;;;7.63;;
23745;SDS011;12053;48.878;9.632;2023-12-04T09:37:35;12.90;;;8.13;;
23745;SDS011;12053;48.878;9.632;2023-12-04T09:40:02;14.18;;;8.55;;
23745;SDS011;12053;48.878;9.632;2023-12-04T09:42:31;15.10;;;8.07;;
23745;SDS011;12053;48.878;9.632;2023-12-04T09:44:59;12.07;;;7.55;;
23745;SDS011;12053;48.878;9.632;2023-12-04T09:47:27;15.10;;;7.72;;
23745;SDS011;12053;48.878;9.632;2023-12-04T09:49:57;11.45;;;7.60;;
23745;SDS011;12053;48.878;9.632;2023-12-04T09:52:27;12.70;;;7.70;;
23745;SDS011;12053;48.878;9.632;2023-12-04T09:54:54;14.55;;;9.15;;
23745;SDS011;12053;48.878;9.632;2023-12-04T09:57:21;13.23;;;8.23;;
23745;SDS011;12053;48.878;9.632;2023-12-04T09:59:51;14.20;;;8.60;;
23745;SDS011;12053;48.878;9.632;2023-12-04T10:02:19;14.05;;;8.40;;
23745;SDS011;12053;48.878;9.632;2023-12-04T10:04:48;14.68;;;8.40;;
23745;SDS011;12053;48.878;9.632;2023-12-04T10:07:15;17.38;;;10.43;;
23745;SDS011;12053;48.878;9.632;2023-12-04T10:09:42;13.10;;;8.60;;
23745;SDS011;12053;48.878;9.632;2023-12-04T10:12:10;13.48;;;8.18;;
23745;SDS011;12053;48.878;9.632;2023-12-04T10:14:37;15.88;;;8.80;;
23745;SDS011;12053;48.878;9.632;2023-12-04T10:17:14;13.27;;;7.68;;
23745;SDS011;12053;48.878;9.632;2023-12-04T10:19:45;14.63;;;8.68;;
23745;SDS011;12053;48.878;9.632;2023-12-04T10:22:12;14.40;;;8.65;;
23745;SDS011;12053;48.878;9.632;2023-12-04T10:24:40;15.93;;;8.52;;
23745;SDS011;12053;48.878;9.632;2023-12-04T10:27:08;18.42;;;10.30;;
23745;SDS011;12053;48.878;9.632;2023-12-04T10:29:45;17.38;;;9.88;;
23745;SDS011;12053;48.878;9.632;2023-12-04T10:32:16;14.57;;;9.00;;
23745;SDS011;12053;48.878;9.632;2023-12-04T10:34:48;15.85;;;9.68;;
23745;SDS011;12053;48.878;9.632;2023-12-04T10:37:15;14.75;;;8.43;;
23745;SDS011;12053;48.878;9.632;2023-12-04T10:39:47;11.48;;;8.00;;
23745;SDS011;12053;48.878;9.632;2023-12-04T10:42:25;18.70;;;9.43;;
23745;SDS011;12053;48.878;9.632;2023-12-04T10:44:54;11.60;;;7.72;;
23745;SDS011;12053;48.878;9.632;2023-12-04T10:47:23;12.30;;;8.45;;
23745;SDS011;12053;48.878;9.632;2023-12-04T10:49:50;14.95;;;8.65;;
23745;SDS011;12053;48.878;9.632;2023-12-04T10:52:18;12.18;;;7.90;;
23745;SDS011;12053;48.878;9.632;2023-12-04T10:54:46;16.27;;;9.63;;
23745;SDS011;12053;48.878;9.632;2023-12-04T10:57:21;24.08;;;12.60;;
23745;SDS011;12053;48.878;9.632;2023-12-04T10:59:51;18.25;;;11.02;;
23745;SDS011;12053;48.878;9.632;2023-12-04T11:02:25;23.50;;;12.63;;
23745;SDS011;12053;48.878;9.632;2023-12-04T11:04:54;45.65;;;22.05;;
23745;SDS011;12053;48.878;9.632;2023-12-04T11:07:22;31.33;;;14.68;;
23745;SDS011;12053;48.878;9.632;2023-12-04T11:09:51;29.00;;;11.48;;
23745;SDS011;12053;48.878;9.632;2023-12-04T11:12:20;22.05;;;11.43;;
23745;SDS011;12053;48.878;9.632;2023-12-04T11:14:50;34.75;;;17.30;;
23745;SDS011;12053;48.878;9.632;2023-12-04T11:17:20;19.52;;;11.48;;
23745;SDS011;12053;48.878;9.632;2023-12-04T11:19:52;17.20;;;9.80;;
23745;SDS011;12053;48.878;9.632;2023-12-04T11:22:20;21.63;;;11.75;;
23745;SDS011;12053;48.878;9.632;2023-12-04T11:24:48;17.13;;;10.07;;
23745;SDS011;12053;48.878;9.632;2023-12-04T11:27:16;18.27;;;10.85;;
23745;SDS011;12053;48.878;9.632;2023-12-04T11:29:44;16.33;;;9.38;;
23745;SDS011;12053;48.878;9.632;2023-12-04T11:32:16;15.38;;;9.25;;
23745;SDS011;12053;48.878;9.632;2023-12-04T11:34:47;18.13;;;9.73;;
23745;SDS011;12053;48.878;9.632;2023-12-04T11:37:15;16.55;;;10.05;;
23745;SDS011;12053;48.878;9.632;2023-12-04T11:39:42;14.85;;;9.45;;
23745;SDS011;12053;48.878;9.632;2023-12-04T11:42:10;14.00;;;8.65;;
23745;SDS011;12053;48.878;9.632;2023-12-04T11:44:40;18.73;;;9.20;;
23745;SDS011;12053;48.878;9.632;2023-12-04T11:47:08;14.68;;;8.73;;
23745;SDS011;12053;48.878;9.632;2023-12-04T11:49:35;14.15;;;8.82;;
23745;SDS011;12053;48.878;9.632;2023-12-04T11:52:03;13.82;;;9.02;;
23745;SDS011;12053;48.878;9.632;2023-12-04T11:54:55;11.98;;;7.47;;
23745;SDS011;12053;48.878;9.632;2023-12-04T11:59:46;13.73;;;8.10;;
23745;SDS011;12053;48.878;9.632;2023-12-04T12:02:15;13.48;;;7.15;;
23745;SDS011;12053;48.878;9.632;2023-12-04T12:04:43;14.43;;;8.82;;
23745;SDS011;12053;48.878;9.632;2023-12-04T12:07:14;12.40;;;8.15;;
23745;SDS011;12053;48.878;9.632;2023-12-04T12:09:41;14.80;;;9.07;;
23745;SDS011;12053;48.878;9.632;2023-12-04T12:12:08;13.38;;;8.88;;
23745;SDS011;12053;48.878;9.632;2023-12-04T12:14:36;13.60;;;8.88;;
23745;SDS011;12053;48.878;9.632;2023-12-04T12:17:03;14.13;;;9.13;;
23745;SDS011;12053;48.878;9.632;2023-12-04T12:19:31;16.73;;;9.82;;
23745;SDS011;12053;48.878;9.632;2023-12-04T12:21:58;16.58;;;8.95;;
23745;SDS011;12053;48.878;9.632;2023-12-04T12:24:27;18.65;;;10.68;;
23745;SDS011;12053;48.878;9.632;2023-12-04T12:26:55;16.20;;;9.57;;
23745;SDS011;12053;48.878;9.632;2023-12-04T12:29:23;13.73;;;9.63;;
23745;SDS011;12053;48.878;9.632;2023-12-04T12:31:50;13.75;;;9.90;;
23745;SDS011;12053;48.878;9.632;2023-12-04T12:34:17;14.68;;;9.50;;
23745;SDS011;12053;48.878;9.632;2023-12-04T12:36:45;12.32;;;8.30;;
23745;SDS011;12053;48.878;9.632;2023-12-04T12:39:12;15.25;;;8.52;;
23745;SDS011;12053;48.878;9.632;2023-12-04T12:41:50;12.90;;;8.15;;
23745;SDS011;12053;48.878;9.632;2023-12-04T12:44:17;12.43;;;8.23;;
23745;SDS011;12053;48.878;9.632;2023-12-04T12:46:48;14.85;;;9.07;;
23745;SDS011;12053;48.878;9.632;2023-12-04T12:49:19;16.38;;;9.70;;
23745;SDS011;12053;48.878;9.632;2023-12-04T12:52:02;15.55;;;10.00;;
23745;SDS011;12053;48.878;9.632;2023-12-04T12:54:30;16.60;;;9.02;;
23745;SDS011;12053;48.878;9.632;2023-12-04T12:56:59;12.10;;;8.50;;
23745;SDS011;12053;48.878;9.632;2023-12-04T12:59:27;15.15;;;8.75;;
23745;SDS011;12053;48.878;9.632;2023-12-04T13:01:54;12.95;;;7.90;;
23745;SDS011;12053;48.878;9.632;2023-12-04T13:04:23;12.48;;;8.63;;
23745;SDS011;12053;48.878;9.632;2023-12-04T13:06:51;13.45;;;9.10;;
23745;SDS011;12053;48.878;9.632;2023-12-04T13:09:19;15.57;;;8.95;;
23745;SDS011;12053;48.878;9.632;2023-12-04T13:11:47;16.48;;;10.68;;
23745;SDS011;12053;48.878;9.632;2023-12-04T13:14:15;13.23;;;8.75;;
23745;SDS011;12053;48.878;9.632;2023-12-04T13:16:42;14.52;;;9.52;;
23745;SDS011;12053;48.878;9.632;2023-12-04T13:19:09;14.55;;;8.48;;
23745;SDS011;12053;48.878;9.632;2023-12-04T13:21:37;16.02;;;9.07;;
23745;SDS011;12053;48.878;9.632;2023-12-04T13:24:04;15.52;;;9.50;;
23745;SDS011;12053;48.878;9.632;2023-12-04T13:26:33;13.20;;;8.90;;
23745;SDS011;12053;48.878;9.632;2023-12-04T13:29:00;14.63;;;9.80;;
23745;SDS011;12053;48.878;9.632;2023-12-04T13:31:28;15.18;;;9.68;;
23745;SDS011;12053;48.878;9.632;2023-12-04T13:33:55;15.60;;;9.88;;
23745;SDS011;12053;48.878;9.632;2023-12-04T13:36:22;16.80;;;9.13;;
23745;SDS011;12053;48.878;9.632;2023-12-04T13:38:50;19.23;;;9.75;;
23745;SDS011;12053;48.878;9.632;2023-12-04T13:41:17;20.10;;;10.35;;
23745;SDS011;12053;48.878;9.632;2023-12-04T13:44:03;14.75;;;9.63;;
23745;SDS011;12053;48.878;9.632;2023-12-04T13:46:30;23.70;;;11.63;;
23745;SDS011;12053;48.878;9.632;2023-12-04T13:48:58;17.88;;;9.57;;
23745;SDS011;12053;48.878;9.632;2023-12-04T13:51:26;19.58;;;11.13;;
23745;SDS011;12053;48.878;9.632;2023-12-04T13:53:53;17.75;;;9.80;;
23745;SDS011;12053;48.878;9.632;2023-12-04T13:56:28;17.67;;;10.98;;
23745;SDS011;12053;48.878;9.632;2023-12-04T13:59:14;15.57;;;9.88;;
23745;SDS011;12053;48.878;9.632;2023-12-04T14:01:46;14.85;;;8.98;;
23745;SDS011;12053;48.878;9.632;2023-12-04T14:04:14;24.20;;;12.55;;
23745;SDS011;12053;48.878;9.632;2023-12-04T14:06:41;18.17;;;12.48;;
23745;SDS011;12053;48.878;9.632;2023-12-04T14:09:09;17.90;;;11.70;;
23745;SDS011;12053;48.878;9.632;2023-12-04T14:11:43;18.10;;;11.77;;
23745;SDS011;12053;48.878;9.632;2023-12-04T14:14:11;18.05;;;11.82;;
23745;SDS011;12053;48.878;9.632;2023-12-04T14:16:41;21.55;;;12.05;;
23745;SDS011;12053;48.878;9.632;2023-12-04T14:19:11;18.88;;;12.25;;
23745;SDS011;12053;48.878;9.632;2023-12-04T14:21:41;21.15;;;12.73;;
23745;SDS011;12053;48.878;9.632;2023-12-04T14:24:08;19.45;;;12.18;;
23745;SDS011;12053;48.878;9.632;2023-12-04T14:26:35;18.58;;;11.23;;
23745;SDS011;12053;48.878;9.632;2023-12-04T14:29:02;20.77;;;12.90;;
23745;SDS011;12053;48.878;9.632;2023-12-04T14:31:30;18.83;;;10.57;;
23745;SDS011;12053;48.878;9.632;2023-12-04T14:33:57;17.08;;;9.15;;
23745;SDS011;12053;48.878;9.632;2023-12-04T14:36:24;23.50;;;12.40;;
23745;SDS011;12053;48.878;9.632;2023-12-04T14:38:53;23.80;;;14.60;;
23745;SDS011;12053;48.878;9.632;2023-12-04T14:41:22;22.63;;;12.13;;
23745;SDS011;12053;48.878;9.632;2023-12-04T14:43:49;20.95;;;11.77;;